sensor_id;sensor_type;location;lat;lon;timestamp;P1;durP1;ratioP1;P2;durP2;ratioP2
1416;SDS011;703;51.162;13.574;2022-08-23T00:01:38;16.30;;;8.50;;
1416;SDS011;703;51.162;13.574;2022-08-23T00:04:09;21.23;;;10.70;;
1416;SDS011;703;51.162;13.574;2022-08-23T00:06:39;19.63;;;10.67;;
1416;SDS011;703;51.162;13.574;2022-08-23T00:09:06;15.20;;;9.00;;
1416;SDS011;703;51.162;13.574;2022-08-23T00:11:33;15.70;;;9.50;;
1416;SDS011;703;51.162;13.574;2022-08-23T00:14:01;19.97;;;11.73;;
1416;SDS011;703;51.162;13.574;2022-08-23T00:16:30;16.77;;;10.30;;
1416;SDS011;703;51.162;13.574;2022-08-23T00:18:56;20.13;;;9.63;;
1416;SDS011;703;51.162;13.574;2022-08-23T00:21:22;16.77;;;10.53;;
1416;SDS011;703;51.162;13.574;2022-08-23T00:23:47;16.27;;;9.57;;
1416;SDS011;703;51.162;13.574;2022-08-23T00:26:13;20.93;;;11.80;;
1416;SDS011;703;51.162;13.574;2022-08-23T00:28:39;15.07;;;9.23;;
1416;SDS011;703;51.162;13.574;2022-08-23T00:31:05;18.40;;;9.83;;
1416;SDS011;703;51.162;13.574;2022-08-23T00:33:30;17.20;;;10.03;;
1416;SDS011;703;51.162;13.574;2022-08-23T00:35:56;16.20;;;9.60;;
1416;SDS011;703;51.162;13.574;2022-08-23T00:38:22;21.80;;;8.90;;
1416;SDS011;703;51.162;13.574;2022-08-23T00:40:49;19.73;;;10.00;;
1416;SDS011;703;51.162;13.574;2022-08-23T00:43:17;17.90;;;10.00;;
1416;SDS011;703;51.162;13.574;2022-08-23T00:46:12;18.27;;;9.83;;
1416;SDS011;703;51.162;13.574;2022-08-23T00:49:10;14.90;;;9.60;;
1416;SDS011;703;51.162;13.574;2022-08-23T00:51:48;17.00;;;10.17;;
1416;SDS011;703;51.162;13.574;2022-08-23T00:54:42;14.13;;;8.53;;
1416;SDS011;703;51.162;13.574;2022-08-23T00:57:10;16.17;;;10.10;;
1416;SDS011;703;51.162;13.574;2022-08-23T00:59:40;17.47;;;10.23;;
1416;SDS011;703;51.162;13.574;2022-08-23T01:02:06;20.50;;;9.93;;
1416;SDS011;703;51.162;13.574;2022-08-23T01:04:33;15.30;;;9.10;;
1416;SDS011;703;51.162;13.574;2022-08-23T01:07:13;16.00;;;9.30;;
1416;SDS011;703;51.162;13.574;2022-08-23T01:09:52;16.83;;;10.20;;
1416;SDS011;703;51.162;13.574;2022-08-23T01:12:28;14.60;;;8.93;;
1416;SDS011;703;51.162;13.574;2022-08-23T01:15:09;16.77;;;9.50;;
1416;SDS011;703;51.162;13.574;2022-08-23T01:18:03;20.27;;;9.67;;
1416;SDS011;703;51.162;13.574;2022-08-23T01:20:37;15.53;;;8.67;;
1416;SDS011;703;51.162;13.574;2022-08-23T01:23:44;16.93;;;10.03;;
1416;SDS011;703;51.162;13.574;2022-08-23T01:26:13;15.47;;;9.07;;
1416;SDS011;703;51.162;13.574;2022-08-23T01:28:40;19.30;;;10.53;;
1416;SDS011;703;51.162;13.574;2022-08-23T01:31:06;16.63;;;8.97;;
1416;SDS011;703;51.162;13.574;2022-08-23T01:33:33;17.30;;;9.93;;
1416;SDS011;703;51.162;13.574;2022-08-23T01:35:59;17.27;;;10.40;;
1416;SDS011;703;51.162;13.574;2022-08-23T01:38:26;14.93;;;9.03;;
1416;SDS011;703;51.162;13.574;2022-08-23T01:40:52;19.87;;;10.50;;
1416;SDS011;703;51.162;13.574;2022-08-23T01:43:18;19.07;;;9.27;;
1416;SDS011;703;51.162;13.574;2022-08-23T01:45:46;14.17;;;8.27;;
1416;SDS011;703;51.162;13.574;2022-08-23T01:48:13;15.30;;;9.00;;
1416;SDS011;703;51.162;13.574;2022-08-23T01:50:39;14.40;;;7.50;;
1416;SDS011;703;51.162;13.574;2022-08-23T01:53:05;13.60;;;7.40;;
1416;SDS011;703;51.162;13.574;2022-08-23T01:55:32;15.40;;;8.40;;
1416;SDS011;703;51.162;13.574;2022-08-23T01:57:59;15.23;;;8.07;;
1416;SDS011;703;51.162;13.574;2022-08-23T02:00:28;14.20;;;7.93;;
1416;SDS011;703;51.162;13.574;2022-08-23T02:02:59;18.43;;;8.63;;
1416;SDS011;703;51.162;13.574;2022-08-23T02:05:26;12.80;;;6.83;;
1416;SDS011;703;51.162;13.574;2022-08-23T02:07:52;16.13;;;9.50;;
1416;SDS011;703;51.162;13.574;2022-08-23T02:10:19;14.53;;;7.57;;
1416;SDS011;703;51.162;13.574;2022-08-23T02:12:48;13.27;;;7.93;;
1416;SDS011;703;51.162;13.574;2022-08-23T02:15:14;20.77;;;8.10;;
1416;SDS011;703;51.162;13.574;2022-08-23T02:17:41;14.83;;;7.20;;
1416;SDS011;703;51.162;13.574;2022-08-23T02:20:08;16.30;;;7.77;;
1416;SDS011;703;51.162;13.574;2022-08-23T02:22:34;13.80;;;7.60;;
1416;SDS011;703;51.162;13.574;2022-08-23T02:24:59;13.83;;;7.93;;
1416;SDS011;703;51.162;13.574;2022-08-23T02:27:25;17.47;;;10.80;;
1416;SDS011;703;51.162;13.574;2022-08-23T02:29:51;17.00;;;8.40;;
1416;SDS011;703;51.162;13.574;2022-08-23T02:32:17;17.63;;;8.33;;
1416;SDS011;703;51.162;13.574;2022-08-23T02:34:43;19.83;;;9.13;;
1416;SDS011;703;51.162;13.574;2022-08-23T02:37:11;18.70;;;9.87;;
1416;SDS011;703;51.162;13.574;2022-08-23T02:39:41;17.27;;;8.83;;
1416;SDS011;703;51.162;13.574;2022-08-23T02:42:07;16.17;;;8.67;;
1416;SDS011;703;51.162;13.574;2022-08-23T02:44:33;13.43;;;7.80;;
1416;SDS011;703;51.162;13.574;2022-08-23T02:47:00;17.43;;;7.60;;
1416;SDS011;703;51.162;13.574;2022-08-23T02:49:27;15.23;;;8.43;;
1416;SDS011;703;51.162;13.574;2022-08-23T02:51:53;16.93;;;9.37;;
1416;SDS011;703;51.162;13.574;2022-08-23T02:54:19;16.07;;;9.20;;
1416;SDS011;703;51.162;13.574;2022-08-23T02:56:44;16.50;;;9.13;;
1416;SDS011;703;51.162;13.574;2022-08-23T02:59:10;13.50;;;7.17;;
1416;SDS011;703;51.162;13.574;2022-08-23T03:01:37;13.40;;;7.60;;
1416;SDS011;703;51.162;13.574;2022-08-23T03:04:05;15.10;;;7.67;;
1416;SDS011;703;51.162;13.574;2022-08-23T03:06:33;18.17;;;9.57;;
1416;SDS011;703;51.162;13.574;2022-08-23T03:08:59;15.87;;;10.40;;
1416;SDS011;703;51.162;13.574;2022-08-23T03:11:25;16.23;;;9.17;;
1416;SDS011;703;51.162;13.574;2022-08-23T03:13:51;14.83;;;9.07;;
1416;SDS011;703;51.162;13.574;2022-08-23T03:16:18;18.60;;;10.30;;
1416;SDS011;703;51.162;13.574;2022-08-23T03:18:45;14.90;;;8.50;;
1416;SDS011;703;51.162;13.574;2022-08-23T03:21:11;15.90;;;9.37;;
1416;SDS011;703;51.162;13.574;2022-08-23T03:23:38;16.40;;;8.63;;
1416;SDS011;703;51.162;13.574;2022-08-23T03:26:04;14.63;;;8.53;;
1416;SDS011;703;51.162;13.574;2022-08-23T03:28:33;12.70;;;7.80;;
1416;SDS011;703;51.162;13.574;2022-08-23T03:30:59;16.30;;;9.10;;
1416;SDS011;703;51.162;13.574;2022-08-23T03:33:25;12.90;;;6.33;;
1416;SDS011;703;51.162;13.574;2022-08-23T03:35:51;15.43;;;9.43;;
1416;SDS011;703;51.162;13.574;2022-08-23T03:38:16;17.30;;;10.00;;
1416;SDS011;703;51.162;13.574;2022-08-23T03:40:43;16.70;;;10.27;;
1416;SDS011;703;51.162;13.574;2022-08-23T03:43:09;13.67;;;7.63;;
1416;SDS011;703;51.162;13.574;2022-08-23T03:45:35;18.60;;;8.33;;
1416;SDS011;703;51.162;13.574;2022-08-23T03:48:01;19.40;;;9.47;;
1416;SDS011;703;51.162;13.574;2022-08-23T03:50:27;15.13;;;9.20;;
1416;SDS011;703;51.162;13.574;2022-08-23T03:52:53;17.17;;;7.90;;
1416;SDS011;703;51.162;13.574;2022-08-23T03:55:19;18.93;;;8.70;;
1416;SDS011;703;51.162;13.574;2022-08-23T03:57:45;16.17;;;8.10;;
1416;SDS011;703;51.162;13.574;2022-08-23T04:00:11;17.93;;;9.30;;
1416;SDS011;703;51.162;13.574;2022-08-23T04:02:38;15.73;;;8.73;;
1416;SDS011;703;51.162;13.574;2022-08-23T04:05:04;20.77;;;8.63;;
1416;SDS011;703;51.162;13.574;2022-08-23T04:07:32;16.30;;;8.83;;
1416;SDS011;703;51.162;13.574;2022-08-23T04:09:59;16.23;;;8.83;;
1416;SDS011;703;51.162;13.574;2022-08-23T04:12:25;15.07;;;9.97;;
1416;SDS011;703;51.162;13.574;2022-08-23T04:14:50;14.47;;;8.73;;
1416;SDS011;703;51.162;13.574;2022-08-23T04:17:17;16.70;;;8.90;;
1416;SDS011;703;51.162;13.574;2022-08-23T04:19:44;19.10;;;8.90;;
1416;SDS011;703;51.162;13.574;2022-08-23T04:22:14;14.17;;;8.37;;
1416;SDS011;703;51.162;13.574;2022-08-23T04:24:41;14.07;;;8.57;;
1416;SDS011;703;51.162;13.574;2022-08-23T04:27:08;15.63;;;7.87;;
1416;SDS011;703;51.162;13.574;2022-08-23T04:29:34;23.70;;;9.47;;
1416;SDS011;703;51.162;13.574;2022-08-23T04:32:03;18.27;;;10.30;;
1416;SDS011;703;51.162;13.574;2022-08-23T04:34:31;15.10;;;8.90;;
1416;SDS011;703;51.162;13.574;2022-08-23T04:36:58;16.33;;;8.97;;
1416;SDS011;703;51.162;13.574;2022-08-23T04:39:25;15.77;;;7.97;;
1416;SDS011;703;51.162;13.574;2022-08-23T04:41:51;15.73;;;7.27;;
1416;SDS011;703;51.162;13.574;2022-08-23T04:44:49;14.30;;;8.63;;
1416;SDS011;703;51.162;13.574;2022-08-23T04:47:15;14.93;;;9.50;;
1416;SDS011;703;51.162;13.574;2022-08-23T04:49:44;18.47;;;9.47;;
1416;SDS011;703;51.162;13.574;2022-08-23T04:52:10;15.20;;;10.10;;
1416;SDS011;703;51.162;13.574;2022-08-23T04:54:37;15.03;;;9.97;;
1416;SDS011;703;51.162;13.574;2022-08-23T04:57:04;15.30;;;10.50;;
1416;SDS011;703;51.162;13.574;2022-08-23T04:59:29;16.27;;;8.00;;
1416;SDS011;703;51.162;13.574;2022-08-23T05:01:55;18.03;;;10.47;;
1416;SDS011;703;51.162;13.574;2022-08-23T05:04:20;18.00;;;9.67;;
1416;SDS011;703;51.162;13.574;2022-08-23T05:06:46;18.60;;;10.07;;
1416;SDS011;703;51.162;13.574;2022-08-23T05:09:12;17.13;;;9.10;;
1416;SDS011;703;51.162;13.574;2022-08-23T05:11:38;23.73;;;11.77;;
1416;SDS011;703;51.162;13.574;2022-08-23T05:14:03;16.13;;;9.10;;
1416;SDS011;703;51.162;13.574;2022-08-23T05:16:29;23.30;;;10.27;;
1416;SDS011;703;51.162;13.574;2022-08-23T05:18:55;16.63;;;9.20;;
1416;SDS011;703;51.162;13.574;2022-08-23T05:21:21;17.17;;;9.00;;
1416;SDS011;703;51.162;13.574;2022-08-23T05:23:48;15.67;;;9.40;;
1416;SDS011;703;51.162;13.574;2022-08-23T05:26:14;16.93;;;8.13;;
1416;SDS011;703;51.162;13.574;2022-08-23T05:28:42;20.30;;;10.30;;
1416;SDS011;703;51.162;13.574;2022-08-23T05:31:11;21.50;;;9.53;;
1416;SDS011;703;51.162;13.574;2022-08-23T05:33:40;16.87;;;9.57;;
1416;SDS011;703;51.162;13.574;2022-08-23T05:36:07;18.23;;;9.70;;
1416;SDS011;703;51.162;13.574;2022-08-23T05:38:34;15.97;;;9.43;;
1416;SDS011;703;51.162;13.574;2022-08-23T05:41:00;19.47;;;10.50;;
1416;SDS011;703;51.162;13.574;2022-08-23T05:43:26;18.90;;;9.47;;
1416;SDS011;703;51.162;13.574;2022-08-23T05:46:04;17.53;;;10.30;;
1416;SDS011;703;51.162;13.574;2022-08-23T05:48:35;16.33;;;10.40;;
1416;SDS011;703;51.162;13.574;2022-08-23T05:53:42;13.43;;;7.50;;
1416;SDS011;703;51.162;13.574;2022-08-23T05:56:14;17.77;;;9.13;;
1416;SDS011;703;51.162;13.574;2022-08-23T05:58:43;15.13;;;8.47;;
1416;SDS011;703;51.162;13.574;2022-08-23T06:01:09;15.60;;;8.33;;
1416;SDS011;703;51.162;13.574;2022-08-23T06:03:36;17.27;;;7.80;;
1416;SDS011;703;51.162;13.574;2022-08-23T06:06:02;15.87;;;9.80;;
1416;SDS011;703;51.162;13.574;2022-08-23T06:08:29;14.70;;;8.23;;
1416;SDS011;703;51.162;13.574;2022-08-23T06:11:12;14.40;;;9.73;;
1416;SDS011;703;51.162;13.574;2022-08-23T06:13:49;17.23;;;9.90;;
1416;SDS011;703;51.162;13.574;2022-08-23T06:16:21;16.40;;;8.83;;
1416;SDS011;703;51.162;13.574;2022-08-23T06:18:52;16.13;;;7.90;;
1416;SDS011;703;51.162;13.574;2022-08-23T06:21:19;17.77;;;9.30;;
1416;SDS011;703;51.162;13.574;2022-08-23T06:23:45;17.30;;;9.30;;
1416;SDS011;703;51.162;13.574;2022-08-23T06:26:13;15.17;;;8.73;;
1416;SDS011;703;51.162;13.574;2022-08-23T06:28:41;15.20;;;10.10;;
1416;SDS011;703;51.162;13.574;2022-08-23T06:31:09;15.67;;;9.10;;
1416;SDS011;703;51.162;13.574;2022-08-23T06:33:35;14.83;;;9.57;;
1416;SDS011;703;51.162;13.574;2022-08-23T06:36:09;15.73;;;9.30;;
1416;SDS011;703;51.162;13.574;2022-08-23T06:38:37;16.40;;;9.33;;
1416;SDS011;703;51.162;13.574;2022-08-23T06:41:06;18.97;;;9.60;;
1416;SDS011;703;51.162;13.574;2022-08-23T06:43:34;18.43;;;10.10;;
1416;SDS011;703;51.162;13.574;2022-08-23T06:46:12;14.70;;;8.90;;
1416;SDS011;703;51.162;13.574;2022-08-23T06:48:43;17.17;;;9.93;;
1416;SDS011;703;51.162;13.574;2022-08-23T06:51:14;18.70;;;10.07;;
1416;SDS011;703;51.162;13.574;2022-08-23T06:53:54;16.17;;;8.60;;
1416;SDS011;703;51.162;13.574;2022-08-23T06:56:23;16.17;;;9.00;;
1416;SDS011;703;51.162;13.574;2022-08-23T06:58:49;14.50;;;8.60;;
1416;SDS011;703;51.162;13.574;2022-08-23T07:04:13;17.93;;;11.00;;
1416;SDS011;703;51.162;13.574;2022-08-23T07:06:40;19.30;;;10.73;;
1416;SDS011;703;51.162;13.574;2022-08-23T07:09:06;19.50;;;11.63;;
1416;SDS011;703;51.162;13.574;2022-08-23T07:11:32;15.23;;;9.60;;
1416;SDS011;703;51.162;13.574;2022-08-23T07:13:59;17.50;;;9.40;;
1416;SDS011;703;51.162;13.574;2022-08-23T07:16:33;18.20;;;9.67;;
1416;SDS011;703;51.162;13.574;2022-08-23T07:19:00;16.67;;;9.60;;
1416;SDS011;703;51.162;13.574;2022-08-23T07:21:26;15.20;;;9.10;;
1416;SDS011;703;51.162;13.574;2022-08-23T07:23:52;17.97;;;10.30;;
1416;SDS011;703;51.162;13.574;2022-08-23T07:26:18;15.97;;;9.00;;
1416;SDS011;703;51.162;13.574;2022-08-23T07:28:45;17.60;;;9.67;;
1416;SDS011;703;51.162;13.574;2022-08-23T07:31:13;18.23;;;10.20;;
1416;SDS011;703;51.162;13.574;2022-08-23T07:33:39;15.20;;;8.97;;
1416;SDS011;703;51.162;13.574;2022-08-23T07:36:06;20.27;;;10.50;;
1416;SDS011;703;51.162;13.574;2022-08-23T07:38:32;16.30;;;10.23;;
1416;SDS011;703;51.162;13.574;2022-08-23T07:40:59;18.20;;;10.67;;
1416;SDS011;703;51.162;13.574;2022-08-23T07:43:27;17.67;;;9.97;;
1416;SDS011;703;51.162;13.574;2022-08-23T07:45:53;17.40;;;11.10;;
1416;SDS011;703;51.162;13.574;2022-08-23T07:48:19;18.90;;;11.17;;
1416;SDS011;703;51.162;13.574;2022-08-23T07:50:52;17.93;;;10.43;;
1416;SDS011;703;51.162;13.574;2022-08-23T07:53:19;20.40;;;11.43;;
1416;SDS011;703;51.162;13.574;2022-08-23T07:55:45;20.93;;;12.10;;
1416;SDS011;703;51.162;13.574;2022-08-23T07:58:11;22.90;;;14.57;;
1416;SDS011;703;51.162;13.574;2022-08-23T08:00:37;21.70;;;13.83;;
1416;SDS011;703;51.162;13.574;2022-08-23T08:03:03;19.20;;;12.40;;
1416;SDS011;703;51.162;13.574;2022-08-23T08:05:32;20.40;;;12.37;;
1416;SDS011;703;51.162;13.574;2022-08-23T08:07:58;25.47;;;13.93;;
1416;SDS011;703;51.162;13.574;2022-08-23T08:10:25;19.43;;;12.53;;
1416;SDS011;703;51.162;13.574;2022-08-23T08:12:51;22.13;;;12.60;;
1416;SDS011;703;51.162;13.574;2022-08-23T08:15:17;19.93;;;11.50;;
1416;SDS011;703;51.162;13.574;2022-08-23T08:17:47;21.20;;;11.97;;
1416;SDS011;703;51.162;13.574;2022-08-23T08:20:13;18.77;;;13.20;;
1416;SDS011;703;51.162;13.574;2022-08-23T08:22:39;18.77;;;11.57;;
1416;SDS011;703;51.162;13.574;2022-08-23T08:25:06;20.10;;;12.90;;
1416;SDS011;703;51.162;13.574;2022-08-23T08:27:33;17.07;;;12.43;;
1416;SDS011;703;51.162;13.574;2022-08-23T08:29:59;21.27;;;12.40;;
1416;SDS011;703;51.162;13.574;2022-08-23T08:32:24;17.97;;;12.60;;
1416;SDS011;703;51.162;13.574;2022-08-23T08:34:50;19.23;;;13.03;;
1416;SDS011;703;51.162;13.574;2022-08-23T08:37:16;18.57;;;12.07;;
1416;SDS011;703;51.162;13.574;2022-08-23T08:39:41;19.80;;;12.93;;
1416;SDS011;703;51.162;13.574;2022-08-23T08:45:31;18.30;;;13.00;;
1416;SDS011;703;51.162;13.574;2022-08-23T08:48:16;21.00;;;10.93;;
1416;SDS011;703;51.162;13.574;2022-08-23T08:50:47;17.83;;;10.73;;
1416;SDS011;703;51.162;13.574;2022-08-23T08:53:30;19.67;;;12.27;;
1416;SDS011;703;51.162;13.574;2022-08-23T08:56:06;16.17;;;11.17;;
1416;SDS011;703;51.162;13.574;2022-08-23T08:58:41;16.97;;;10.60;;
1416;SDS011;703;51.162;13.574;2022-08-23T09:01:07;17.50;;;10.37;;
1416;SDS011;703;51.162;13.574;2022-08-23T09:03:34;18.50;;;11.00;;
1416;SDS011;703;51.162;13.574;2022-08-23T09:19:59;17.00;;;10.03;;
1416;SDS011;703;51.162;13.574;2022-08-23T09:22:33;17.63;;;8.43;;
1416;SDS011;703;51.162;13.574;2022-08-23T09:25:09;15.67;;;9.33;;
1416;SDS011;703;51.162;13.574;2022-08-23T09:27:40;18.50;;;8.10;;
1416;SDS011;703;51.162;13.574;2022-08-23T09:30:07;15.70;;;7.73;;
1416;SDS011;703;51.162;13.574;2022-08-23T09:32:36;19.57;;;9.13;;
1416;SDS011;703;51.162;13.574;2022-08-23T09:38:18;15.07;;;7.23;;
1416;SDS011;703;51.162;13.574;2022-08-23T09:40:37;13.90;;;7.70;;
1416;SDS011;703;51.162;13.574;2022-08-23T09:43:18;14.00;;;7.13;;
1416;SDS011;703;51.162;13.574;2022-08-23T09:48:13;14.43;;;7.67;;
1416;SDS011;703;51.162;13.574;2022-08-23T09:51:01;12.50;;;7.30;;
1416;SDS011;703;51.162;13.574;2022-08-23T09:53:48;13.77;;;6.90;;
1416;SDS011;703;51.162;13.574;2022-08-23T09:56:34;12.50;;;5.90;;
1416;SDS011;703;51.162;13.574;2022-08-23T09:59:03;12.63;;;5.60;;
1416;SDS011;703;51.162;13.574;2022-08-23T10:01:46;12.80;;;6.00;;
1416;SDS011;703;51.162;13.574;2022-08-23T10:04:29;13.63;;;6.57;;
1416;SDS011;703;51.162;13.574;2022-08-23T10:09:53;12.80;;;6.97;;
1416;SDS011;703;51.162;13.574;2022-08-23T10:12:36;14.17;;;7.00;;
1416;SDS011;703;51.162;13.574;2022-08-23T10:15:02;14.87;;;7.03;;
1416;SDS011;703;51.162;13.574;2022-08-23T10:17:37;15.23;;;6.63;;
1416;SDS011;703;51.162;13.574;2022-08-23T10:20:32;13.00;;;6.70;;
1416;SDS011;703;51.162;13.574;2022-08-23T10:25:59;13.77;;;7.57;;
1416;SDS011;703;51.162;13.574;2022-08-23T10:31:46;16.53;;;7.20;;
1416;SDS011;703;51.162;13.574;2022-08-23T10:37:12;11.20;;;5.13;;
1416;SDS011;703;51.162;13.574;2022-08-23T10:40:02;13.40;;;6.27;;
1416;SDS011;703;51.162;13.574;2022-08-23T10:45:20;15.93;;;6.00;;
1416;SDS011;703;51.162;13.574;2022-08-23T10:50:46;13.30;;;6.00;;
1416;SDS011;703;51.162;13.574;2022-08-23T10:53:17;12.90;;;6.53;;
1416;SDS011;703;51.162;13.574;2022-08-23T11:04:16;11.57;;;4.97;;
1416;SDS011;703;51.162;13.574;2022-08-23T11:06:46;12.77;;;5.13;;
1416;SDS011;703;51.162;13.574;2022-08-23T11:11:48;14.90;;;6.43;;
1416;SDS011;703;51.162;13.574;2022-08-23T11:17:01;13.57;;;6.33;;
1416;SDS011;703;51.162;13.574;2022-08-23T11:22:30;16.00;;;6.73;;
1416;SDS011;703;51.162;13.574;2022-08-23T11:24:59;15.10;;;6.10;;
1416;SDS011;703;51.162;13.574;2022-08-23T11:27:35;12.83;;;6.20;;
1416;SDS011;703;51.162;13.574;2022-08-23T11:46:28;13.50;;;5.33;;
1416;SDS011;703;51.162;13.574;2022-08-23T11:58:14;14.80;;;5.47;;
1416;SDS011;703;51.162;13.574;2022-08-23T12:01:10;15.60;;;5.90;;
1416;SDS011;703;51.162;13.574;2022-08-23T12:08:54;13.20;;;6.63;;
1416;SDS011;703;51.162;13.574;2022-08-23T12:11:25;10.90;;;5.10;;
1416;SDS011;703;51.162;13.574;2022-08-23T12:16:58;14.67;;;5.50;;
1416;SDS011;703;51.162;13.574;2022-08-23T12:19:31;13.80;;;6.03;;
1416;SDS011;703;51.162;13.574;2022-08-23T12:22:19;12.93;;;5.93;;
1416;SDS011;703;51.162;13.574;2022-08-23T12:30:19;13.87;;;5.60;;
1416;SDS011;703;51.162;13.574;2022-08-23T12:38:31;11.90;;;5.43;;
1416;SDS011;703;51.162;13.574;2022-08-23T12:41:18;13.43;;;6.20;;
1416;SDS011;703;51.162;13.574;2022-08-23T12:44:17;16.10;;;6.67;;
1416;SDS011;703;51.162;13.574;2022-08-23T12:46:43;12.70;;;6.00;;
1416;SDS011;703;51.162;13.574;2022-08-23T12:52:16;11.77;;;5.13;;
1416;SDS011;703;51.162;13.574;2022-08-23T12:54:49;12.77;;;5.67;;
1416;SDS011;703;51.162;13.574;2022-08-23T12:57:20;16.07;;;6.10;;
1416;SDS011;703;51.162;13.574;2022-08-23T13:02:37;11.97;;;6.33;;
1416;SDS011;703;51.162;13.574;2022-08-23T13:05:11;13.13;;;5.97;;
1416;SDS011;703;51.162;13.574;2022-08-23T13:07:48;13.27;;;6.20;;
1416;SDS011;703;51.162;13.574;2022-08-23T13:10:14;12.83;;;5.40;;
1416;SDS011;703;51.162;13.574;2022-08-23T13:12:41;13.13;;;5.87;;
1416;SDS011;703;51.162;13.574;2022-08-23T13:15:07;13.57;;;5.27;;
1416;SDS011;703;51.162;13.574;2022-08-23T13:17:34;14.23;;;6.50;;
1416;SDS011;703;51.162;13.574;2022-08-23T13:22:54;14.10;;;5.63;;
1416;SDS011;703;51.162;13.574;2022-08-23T13:25:32;16.67;;;6.30;;
1416;SDS011;703;51.162;13.574;2022-08-23T13:28:07;13.93;;;6.03;;
1416;SDS011;703;51.162;13.574;2022-08-23T13:31:03;12.53;;;5.43;;
1416;SDS011;703;51.162;13.574;2022-08-23T13:33:34;16.90;;;6.40;;
1416;SDS011;703;51.162;13.574;2022-08-23T13:36:14;12.97;;;5.87;;
1416;SDS011;703;51.162;13.574;2022-08-23T13:38:42;11.90;;;5.00;;
1416;SDS011;703;51.162;13.574;2022-08-23T13:41:09;11.43;;;5.87;;
1416;SDS011;703;51.162;13.574;2022-08-23T13:43:49;12.87;;;6.20;;
1416;SDS011;703;51.162;13.574;2022-08-23T13:46:26;16.13;;;6.83;;
1416;SDS011;703;51.162;13.574;2022-08-23T13:48:55;12.50;;;6.20;;
1416;SDS011;703;51.162;13.574;2022-08-23T13:53:56;17.33;;;7.10;;
1416;SDS011;703;51.162;13.574;2022-08-23T13:56:23;13.10;;;6.23;;
1416;SDS011;703;51.162;13.574;2022-08-23T13:58:57;13.80;;;7.33;;
1416;SDS011;703;51.162;13.574;2022-08-23T14:01:27;12.80;;;6.17;;
1416;SDS011;703;51.162;13.574;2022-08-23T14:03:54;13.20;;;5.83;;
1416;SDS011;703;51.162;13.574;2022-08-23T14:06:20;12.63;;;5.83;;
1416;SDS011;703;51.162;13.574;2022-08-23T14:08:46;14.80;;;6.40;;
1416;SDS011;703;51.162;13.574;2022-08-23T14:11:12;15.80;;;6.23;;
1416;SDS011;703;51.162;13.574;2022-08-23T14:13:40;12.60;;;5.63;;
1416;SDS011;703;51.162;13.574;2022-08-23T14:16:09;15.30;;;6.90;;
1416;SDS011;703;51.162;13.574;2022-08-23T14:18:40;16.67;;;7.30;;
1416;SDS011;703;51.162;13.574;2022-08-23T14:21:06;14.70;;;6.17;;
1416;SDS011;703;51.162;13.574;2022-08-23T14:23:32;14.30;;;6.43;;
1416;SDS011;703;51.162;13.574;2022-08-23T14:25:58;16.13;;;6.73;;
1416;SDS011;703;51.162;13.574;2022-08-23T14:28:26;13.43;;;6.60;;
1416;SDS011;703;51.162;13.574;2022-08-23T14:30:54;14.07;;;5.90;;
1416;SDS011;703;51.162;13.574;2022-08-23T14:33:20;15.27;;;6.30;;
1416;SDS011;703;51.162;13.574;2022-08-23T14:35:47;14.37;;;5.90;;
1416;SDS011;703;51.162;13.574;2022-08-23T14:38:13;13.60;;;6.00;;
1416;SDS011;703;51.162;13.574;2022-08-23T14:40:40;13.80;;;5.97;;
1416;SDS011;703;51.162;13.574;2022-08-23T14:43:12;13.53;;;6.40;;
1416;SDS011;703;51.162;13.574;2022-08-23T14:45:38;12.10;;;5.60;;
1416;SDS011;703;51.162;13.574;2022-08-23T14:48:04;12.50;;;6.07;;
1416;SDS011;703;51.162;13.574;2022-08-23T14:50:30;15.17;;;6.03;;
1416;SDS011;703;51.162;13.574;2022-08-23T14:52:56;15.70;;;6.83;;
1416;SDS011;703;51.162;13.574;2022-08-23T14:55:22;12.47;;;5.90;;
1416;SDS011;703;51.162;13.574;2022-08-23T14:57:47;14.37;;;6.90;;
1416;SDS011;703;51.162;13.574;2022-08-23T15:00:15;13.50;;;6.60;;
1416;SDS011;703;51.162;13.574;2022-08-23T15:02:42;13.83;;;6.40;;
1416;SDS011;703;51.162;13.574;2022-08-23T15:05:10;12.10;;;5.63;;
1416;SDS011;703;51.162;13.574;2022-08-23T15:07:37;12.30;;;6.00;;
1416;SDS011;703;51.162;13.574;2022-08-23T15:10:03;11.60;;;5.13;;
1416;SDS011;703;51.162;13.574;2022-08-23T15:12:29;12.47;;;5.10;;
1416;SDS011;703;51.162;13.574;2022-08-23T15:14:54;13.10;;;6.33;;
1416;SDS011;703;51.162;13.574;2022-08-23T15:17:20;12.70;;;6.40;;
1416;SDS011;703;51.162;13.574;2022-08-23T15:19:46;14.93;;;6.77;;
1416;SDS011;703;51.162;13.574;2022-08-23T15:22:11;12.53;;;5.63;;
1416;SDS011;703;51.162;13.574;2022-08-23T15:24:37;15.83;;;6.40;;
1416;SDS011;703;51.162;13.574;2022-08-23T15:27:04;12.63;;;5.33;;
1416;SDS011;703;51.162;13.574;2022-08-23T15:29:30;18.47;;;6.53;;
1416;SDS011;703;51.162;13.574;2022-08-23T15:31:55;12.80;;;5.83;;
1416;SDS011;703;51.162;13.574;2022-08-23T15:34:21;18.67;;;8.00;;
1416;SDS011;703;51.162;13.574;2022-08-23T15:36:48;11.90;;;5.67;;
1416;SDS011;703;51.162;13.574;2022-08-23T15:39:14;12.27;;;5.73;;
1416;SDS011;703;51.162;13.574;2022-08-23T15:41:40;13.00;;;5.37;;
1416;SDS011;703;51.162;13.574;2022-08-23T15:44:06;13.97;;;6.20;;
1416;SDS011;703;51.162;13.574;2022-08-23T15:46:31;14.47;;;6.40;;
1416;SDS011;703;51.162;13.574;2022-08-23T15:49:03;12.87;;;6.00;;
1416;SDS011;703;51.162;13.574;2022-08-23T15:51:34;11.73;;;5.50;;
1416;SDS011;703;51.162;13.574;2022-08-23T15:54:00;14.60;;;6.00;;
1416;SDS011;703;51.162;13.574;2022-08-23T15:56:28;14.00;;;6.33;;
1416;SDS011;703;51.162;13.574;2022-08-23T15:58:57;16.73;;;5.40;;
1416;SDS011;703;51.162;13.574;2022-08-23T16:01:23;13.37;;;6.00;;
1416;SDS011;703;51.162;13.574;2022-08-23T16:03:51;13.03;;;5.37;;
1416;SDS011;703;51.162;13.574;2022-08-23T16:06:17;13.93;;;6.27;;
1416;SDS011;703;51.162;13.574;2022-08-23T16:08:44;13.63;;;6.10;;
1416;SDS011;703;51.162;13.574;2022-08-23T16:11:13;15.40;;;6.13;;
1416;SDS011;703;51.162;13.574;2022-08-23T16:13:39;11.43;;;4.93;;
1416;SDS011;703;51.162;13.574;2022-08-23T16:16:41;16.17;;;5.40;;
1416;SDS011;703;51.162;13.574;2022-08-23T16:19:01;13.03;;;5.53;;
1416;SDS011;703;51.162;13.574;2022-08-23T16:21:27;13.33;;;5.90;;
1416;SDS011;703;51.162;13.574;2022-08-23T16:23:55;11.90;;;5.63;;
1416;SDS011;703;51.162;13.574;2022-08-23T16:26:22;14.50;;;6.00;;
1416;SDS011;703;51.162;13.574;2022-08-23T16:28:53;14.00;;;5.80;;
1416;SDS011;703;51.162;13.574;2022-08-23T16:31:19;15.57;;;6.17;;
1416;SDS011;703;51.162;13.574;2022-08-23T16:33:46;15.50;;;5.93;;
1416;SDS011;703;51.162;13.574;2022-08-23T16:36:12;16.33;;;7.50;;
1416;SDS011;703;51.162;13.574;2022-08-23T16:38:43;13.03;;;7.20;;
1416;SDS011;703;51.162;13.574;2022-08-23T16:41:09;14.40;;;5.60;;
1416;SDS011;703;51.162;13.574;2022-08-23T16:43:35;13.83;;;7.27;;
1416;SDS011;703;51.162;13.574;2022-08-23T16:46:02;13.30;;;5.63;;
1416;SDS011;703;51.162;13.574;2022-08-23T16:48:29;12.70;;;6.17;;
1416;SDS011;703;51.162;13.574;2022-08-23T16:50:55;13.23;;;5.27;;
1416;SDS011;703;51.162;13.574;2022-08-23T16:53:20;17.10;;;5.53;;
1416;SDS011;703;51.162;13.574;2022-08-23T16:55:47;13.93;;;6.30;;
1416;SDS011;703;51.162;13.574;2022-08-23T16:58:12;16.90;;;6.73;;
1416;SDS011;703;51.162;13.574;2022-08-23T17:00:38;12.80;;;6.73;;
1416;SDS011;703;51.162;13.574;2022-08-23T17:03:04;17.93;;;5.80;;
1416;SDS011;703;51.162;13.574;2022-08-23T17:05:30;13.53;;;5.93;;
1416;SDS011;703;51.162;13.574;2022-08-23T17:07:56;14.43;;;6.07;;
1416;SDS011;703;51.162;13.574;2022-08-23T17:10:22;16.03;;;6.03;;